Terminal Aerodrome Forecast
Issued by NWS

Home | Current Version | Previous Version | Text Only | Print | Product List | Glossary On
Versions: 1 2 3 4 5 6 7 8 9 10 11 12
000
FTUS44 KLIX 230500
TAFGPT
TAF
KGPT 230521Z 2306/2406 VRB03KT P6SM SKC
     FM231600 VRB05KT P6SM SCT035
     FM231800 21004KT P6SM SCT045
     FM240100 VRB03KT P6SM SKC=

USA.gov is the U.S. government's official web portal to all federal, state and local government web resources and services.